Time;durP1;ratioP1;P1;durP2;ratioP2;P2;SDS_P1;SDS_P2;PMS_P1;PMS_P2;Temp;Humidity;BMP_temperature;BMP_pressure;BME280_temperature;BME280_humidity;BME280_pressure;Samples;Min_cycle;Max_cycle;Signal;HPM_P1;HPM_P2
2022/09/25 00:01:24;;;;;;;7.57;2.00;;;;;;;11.00;100.00;101423.41;5050307;28;20071;-55
2022/09/25 00:03:52;;;;;;;9.13;1.70;;;;;;;10.97;100.00;101427.06;5052213;28;20044;-54
2022/09/25 00:06:23;;;;;;;8.30;2.00;;;;;;;10.96;100.00;101428.00;5052021;28;20049;-53
2022/09/25 00:08:52;;;;;;;11.00;2.03;;;;;;;10.89;100.00;101429.28;5052092;28;20098;-52
2022/09/25 00:11:24;;;;;;;9.95;1.90;;;;;;;10.89;100.00;101433.72;5051190;28;20099;-55
2022/09/25 00:13:52;;;;;;;10.38;1.80;;;;;;;10.90;100.00;101425.72;5052033;28;20227;-54
2022/09/25 00:16:27;;;;;;;9.13;1.83;;;;;;;10.90;100.00;101430.97;5048548;28;20049;-53
2022/09/25 00:21:42;;;;;;;7.15;1.38;;;;;;;10.78;100.00;101439.56;5051591;28;20125;-51
2022/09/25 00:24:12;;;;;;;8.15;1.60;;;;;;;10.81;100.00;101437.63;5051381;28;20487;-52
2022/09/25 00:26:43;;;;;;;7.95;1.85;;;;;;;10.82;100.00;101436.69;5051477;28;20056;-52
2022/09/25 00:29:16;;;;;;;6.70;1.58;;;;;;;10.86;100.00;101437.34;5051824;28;20098;-53
2022/09/25 00:31:44;;;;;;;8.23;1.95;;;;;;;10.80;100.00;101441.19;5049745;28;20115;-53
2022/09/25 00:34:12;;;;;;;8.82;1.85;;;;;;;10.77;100.00;101436.09;5050825;28;20044;-51
2022/09/25 00:36:41;;;;;;;7.95;1.73;;;;;;;10.75;100.00;101437.13;5051423;28;20106;-51
2022/09/25 00:39:09;;;;;;;7.90;1.98;;;;;;;10.74;100.00;101436.25;5051413;28;20052;-55
2022/09/25 00:41:37;;;;;;;9.35;1.80;;;;;;;10.70;100.00;101436.53;5050905;28;20049;-53
2022/09/25 00:44:39;;;;;;;9.13;1.90;;;;;;;10.74;100.00;101436.25;5051622;28;20057;-52
2022/09/25 00:47:10;;;;;;;9.27;2.15;;;;;;;10.75;100.00;101443.22;5049256;28;20049;-55
2022/09/25 00:49:39;;;;;;;6.88;1.95;;;;;;;10.74;100.00;101438.88;5051150;28;20107;-55
2022/09/25 00:52:12;;;;;;;6.28;1.65;;;;;;;10.74;100.00;101440.69;5050097;28;20454;-54
2022/09/25 00:54:42;;;;;;;;;;;;;;;10.67;100.00;101439.34;5051440;28;20049;-54
2022/09/25 00:57:14;;;;;;;8.50;1.80;;;;;;;10.55;100.00;101439.09;5049978;28;20379;-54
2022/09/25 00:59:46;;;;;;;7.53;1.60;;;;;;;10.46;100.00;101442.22;5051149;28;20499;-53
2022/09/25 01:02:21;;;;;;;4.85;1.40;;;;;;;10.42;100.00;101443.34;5047885;28;20045;-53
2022/09/25 01:04:50;;;;;;;4.47;1.50;;;;;;;10.42;100.00;101441.53;5051016;28;20056;-54
2022/09/25 01:07:20;;;;;;;3.92;1.42;;;;;;;10.41;100.00;101446.88;5050783;28;20045;-53
2022/09/25 01:09:48;;;;;;;8.75;1.80;;;;;;;10.37;100.00;101442.72;5050976;28;20064;-52
2022/09/25 01:12:16;;;;;;;8.82;1.83;;;;;;;10.34;100.00;101440.25;5050039;28;20041;-53
2022/09/25 01:14:44;;;;;;;7.60;1.40;;;;;;;10.24;100.00;101439.88;5051178;28;20040;-54
2022/09/25 01:17:22;;;;;;;8.00;1.70;;;;;;;10.29;100.00;101440.47;5048514;28;20057;-54
2022/09/25 01:20:03;;;;;;;8.13;1.95;;;;;;;10.31;100.00;101433.38;5050980;28;20052;-53
2022/09/25 01:22:46;;;;;;;7.25;1.75;;;;;;;10.27;100.00;101440.56;5050244;28;20049;-54
2022/09/25 01:25:25;;;;;;;6.68;1.85;;;;;;;10.24;100.00;101430.22;5050936;28;20068;-54
2022/09/25 01:28:14;;;;;;;5.72;1.70;;;;;;;10.21;100.00;101433.03;5050426;28;20056;-54
2022/09/25 01:30:50;;;;;;;6.65;1.90;;;;;;;10.13;100.00;101440.47;5050813;28;20041;-54
2022/09/25 01:33:24;;;;;;;9.05;1.58;;;;;;;10.10;100.00;101440.63;5049512;28;20053;-53
2022/09/25 01:36:00;;;;;;;5.85;1.65;;;;;;;10.10;100.00;101443.25;5050118;28;20049;-54
2022/09/25 01:38:34;;;;;;;8.60;1.80;;;;;;;10.02;100.00;101446.31;5050874;28;20041;-54
2022/09/25 01:41:09;;;;;;;7.03;1.75;;;;;;;10.07;100.00;101448.69;5050392;28;20045;-55
2022/09/25 01:43:42;;;;;;;4.95;1.33;;;;;;;10.03;100.00;101442.72;5050675;28;20103;-50
2022/09/25 01:46:16;;;;;;;10.18;1.83;;;;;;;10.03;100.00;101442.72;5048910;28;20049;-54
2022/09/25 01:48:49;;;;;;;5.30;1.50;;;;;;;10.02;100.00;101445.44;5050461;28;20785;-55
2022/09/25 01:51:22;;;;;;;7.93;1.48;;;;;;;9.99;100.00;101446.44;5050268;28;21006;-54
2022/09/25 01:53:52;;;;;;;;;;;;;;;9.95;100.00;101444.91;5050971;28;20785;-52
2022/09/25 01:56:31;;;;;;;5.30;1.40;;;;;;;9.84;100.00;101448.09;5049516;28;19964;-55
2022/09/25 01:59:05;;;;;;;7.00;1.33;;;;;;;9.88;100.00;101444.38;5050352;28;20049;-52
2022/09/25 02:01:40;;;;;;;4.50;1.45;;;;;;;9.89;100.00;101446.09;5048317;28;20044;-53
2022/09/25 02:04:12;;;;;;;6.38;1.65;;;;;;;9.89;100.00;101445.25;5050116;28;20677;-53
2022/09/25 02:06:46;;;;;;;7.55;1.60;;;;;;;9.76;100.00;101437.16;5050777;28;20510;-54
2022/09/25 02:09:19;;;;;;;11.15;2.08;;;;;;;9.70;100.00;101435.69;5049992;28;20446;-52
2022/09/25 02:11:51;;;;;;;5.10;1.73;;;;;;;9.77;100.00;101444.94;5049453;28;20439;-53
2022/09/25 02:14:23;;;;;;;6.03;1.42;;;;;;;9.71;100.00;101437.41;5051946;28;20049;-53
2022/09/25 02:16:56;;;;;;;8.25;1.50;;;;;;;9.73;100.00;101438.16;5052437;28;20403;-54
2022/09/25 02:22:18;;;;;;;4.82;1.63;;;;;;;9.68;100.00;101440.19;5053943;28;20095;-54
2022/09/25 02:24:53;;;;;;;3.95;1.23;;;;;;;9.64;100.00;101442.13;5054632;28;20491;-54
2022/09/25 02:27:28;;;;;;;5.78;1.90;;;;;;;9.67;100.00;101441.13;5053627;28;20132;-51
2022/09/25 02:29:57;;;;;;;8.05;1.73;;;;;;;9.55;100.00;101447.84;5054405;28;20053;-54
2022/09/25 02:32:30;;;;;;;4.10;1.42;;;;;;;9.53;100.00;101454.97;5051952;28;20486;-54
2022/09/25 02:34:59;;;;;;;6.88;1.50;;;;;;;9.44;100.00;101451.00;5054003;28;20037;-51
2022/09/25 02:37:28;;;;;;;5.72;1.60;;;;;;;9.36;100.00;101452.34;5054050;28;20107;-53
2022/09/25 02:40:00;;;;;;;5.95;1.50;;;;;;;9.39;100.00;101453.03;5054263;28;20373;-53
2022/09/25 02:42:47;;;;;;;5.63;1.52;;;;;;;9.33;100.00;101448.09;5053449;28;20049;-54
2022/09/25 02:45:38;;;;;;;4.55;1.33;;;;;;;9.33;100.00;101444.63;5053410;28;20527;-52
2022/09/25 02:48:14;;;;;;;5.50;1.42;;;;;;;9.32;100.00;101445.56;5050356;28;20053;-50
2022/09/25 02:50:51;;;;;;;4.78;1.50;;;;;;;9.22;100.00;101438.13;5053753;28;20098;-53
2022/09/25 02:53:27;;;;;;;7.18;1.90;;;;;;;9.19;100.00;101435.66;5053462;28;20044;-55
2022/09/25 02:56:00;;;;;;;4.97;1.70;;;;;;;9.18;100.00;101435.75;5053475;28;20057;-53
2022/09/25 02:58:34;;;;;;;7.97;1.58;;;;;;;9.08;100.00;101440.56;5053594;28;20439;-54
2022/09/25 03:01:05;;;;;;;6.07;1.45;;;;;;;9.11;100.00;101443.06;5052604;28;20349;-52
2022/09/25 03:03:37;;;;;;;6.75;1.50;;;;;;;9.07;100.00;101437.13;5052801;28;20407;-49
2022/09/25 03:06:07;;;;;;;9.43;2.05;;;;;;;9.03;100.00;101439.97;5053387;28;20110;-52
2022/09/25 03:08:38;;;;;;;4.35;1.70;;;;;;;9.01;100.00;101441.81;5053628;28;20435;-51
2022/09/25 03:11:07;;;;;;;3.72;1.42;;;;;;;8.94;100.00;101434.25;5052665;28;20434;-50
2022/09/25 03:13:36;;;;;;;4.10;1.52;;;;;;;8.91;100.00;101431.75;5053140;28;20136;-51
2022/09/25 03:16:08;;;;;;;6.00;1.63;;;;;;;8.98;100.00;101431.47;5051547;28;20045;-52
2022/09/25 03:18:38;;;;;;;6.95;1.60;;;;;;;8.99;100.00;101430.56;5052087;28;20864;-53
2022/09/25 03:21:06;;;;;;;7.05;1.88;;;;;;;8.91;100.00;101441.41;5052926;28;20434;-52
2022/09/25 03:23:34;;;;;;;5.80;1.60;;;;;;;8.87;100.00;101435.47;5052730;28;20464;-53
2022/09/25 03:26:03;;;;;;;4.72;1.45;;;;;;;8.82;100.00;101440.09;5050139;28;20064;-53
2022/09/25 03:28:32;;;;;;;8.18;1.88;;;;;;;8.79;100.00;101440.22;5053075;28;20049;-53
2022/09/25 03:31:01;;;;;;;8.57;1.85;;;;;;;8.83;100.00;101444.41;5051262;28;20471;-52
2022/09/25 03:33:34;;;;;;;5.18;1.90;;;;;;;8.83;100.00;101439.16;5052023;28;20442;-50
2022/09/25 03:36:06;;;;;;;4.50;1.33;;;;;;;8.76;100.00;101435.97;5052692;28;20102;-53
2022/09/25 03:38:34;;;;;;;5.88;1.50;;;;;;;8.77;100.00;101428.97;5052344;28;20476;-50
2022/09/25 03:41:03;;;;;;;7.35;2.38;;;;;;;8.70;100.00;101427.56;5052254;28;20079;-55
2022/09/25 03:43:32;;;;;;;7.80;2.10;;;;;;;8.66;100.00;101423.38;5052564;28;20365;-52
2022/09/25 03:46:00;;;;;;;5.20;1.60;;;;;;;8.66;100.00;101418.13;5049953;28;20060;-52
2022/09/25 03:48:28;;;;;;;6.22;1.50;;;;;;;8.66;100.00;101420.75;5051875;28;20045;-52
2022/09/25 03:50:56;;;;;;;3.75;1.52;;;;;;;8.54;100.00;101419.59;5052553;28;20071;-51
2022/09/25 03:53:28;;;;;;;3.92;1.60;;;;;;;8.61;100.00;101424.44;5052356;28;20503;-52
2022/09/25 03:55:57;;;;;;;5.97;1.65;;;;;;;8.65;100.00;101429.56;5051236;28;20048;-53
2022/09/25 03:58:25;;;;;;;7.55;1.70;;;;;;;8.58;100.00;101432.47;5052263;28;20041;-53
2022/09/25 04:00:56;;;;;;;6.80;1.67;;;;;;;8.55;100.00;101426.50;5051128;28;20047;-51
2022/09/25 04:03:26;;;;;;;5.97;1.63;;;;;;;8.53;100.00;101420.50;5051408;28;20110;-51
2022/09/25 04:05:55;;;;;;;6.45;1.85;;;;;;;8.61;100.00;101424.44;5052272;28;20119;-51
2022/09/25 04:08:25;;;;;;;4.60;1.73;;;;;;;8.49;100.00;101424.19;5051738;28;20075;-52
2022/09/25 04:10:58;;;;;;;7.03;1.65;;;;;;;8.40;100.00;101420.22;5051689;28;20048;-51
2022/09/25 04:13:28;;;;;;;7.05;2.38;;;;;;;8.43;100.00;101420.06;5051322;28;20052;-48
2022/09/25 04:15:57;;;;;;;3.25;1.50;;;;;;;8.46;100.00;101425.19;5050787;28;20053;-52
2022/09/25 04:18:26;;;;;;;7.25;2.00;;;;;;;8.40;100.00;101420.22;5050945;28;20474;-54
2022/09/25 04:20:54;;;;;;;6.38;1.80;;;;;;;8.38;100.00;101425.50;5051805;28;20471;-52
2022/09/25 04:23:22;;;;;;;4.97;1.70;;;;;;;8.34;100.00;101417.88;5051829;28;20077;-53
2022/09/25 04:25:50;;;;;;;7.85;2.10;;;;;;;8.36;100.00;101418.66;5051843;28;20503;-53
2022/09/25 04:28:20;;;;;;;6.63;1.80;;;;;;;8.38;100.00;101414.19;5050354;28;20099;-53
2022/09/25 04:30:48;;;;;;;5.68;1.60;;;;;;;8.39;100.00;101423.75;5051119;28;20049;-54
2022/09/25 04:36:12;;;;;;;7.68;1.90;;;;;;;8.29;100.00;101425.94;5050576;28;20148;-51
2022/09/25 04:38:40;;;;;;;4.50;1.65;;;;;;;8.18;100.00;101420.34;5052331;28;20095;-49
2022/09/25 04:41:08;;;;;;;2.70;1.35;;;;;;;8.22;100.00;101420.13;5051808;28;20902;-52
2022/09/25 04:43:40;;;;;;;4.93;1.40;;;;;;;8.25;100.00;101416.53;5051396;28;20112;-50
2022/09/25 04:46:10;;;;;;;5.68;1.88;;;;;;;8.17;100.00;101422.13;5049630;28;20156;-51
2022/09/25 04:48:46;;;;;;;6.05;1.88;;;;;;;8.08;100.00;101420.75;5050883;28;20049;-48
2022/09/25 04:51:14;;;;;;;4.85;1.60;;;;;;;8.13;100.00;101418.78;5049140;28;20564;-51
2022/09/25 04:53:42;;;;;;;6.45;2.15;;;;;;;8.07;100.00;101421.69;5051039;28;20379;-53
2022/09/25 04:56:11;;;;;;;6.30;1.83;;;;;;;8.01;100.00;101413.25;5050260;28;20080;-53
2022/09/25 04:58:45;;;;;;;;;;;;;;;8.01;100.00;101418.50;5051674;28;20500;-50
2022/09/25 05:01:14;;;;;;;8.48;1.95;;;;;;;7.98;100.00;101414.25;5049675;28;20752;-53
2022/09/25 05:03:42;;;;;;;7.78;1.90;;;;;;;7.95;100.00;101410.00;5050450;28;20091;-51
2022/09/25 05:06:10;;;;;;;5.95;1.80;;;;;;;8.00;100.00;101406.31;5050498;28;20041;-52
2022/09/25 05:08:38;;;;;;;6.95;2.05;;;;;;;7.98;100.00;101408.16;5050469;28;20523;-53
2022/09/25 05:11:07;;;;;;;5.68;1.90;;;;;;;7.99;100.00;101407.22;5050038;28;20045;-52
2022/09/25 05:13:35;;;;;;;7.07;1.83;;;;;;;7.99;100.00;101407.22;5050598;28;20488;-51
2022/09/25 05:16:04;;;;;;;9.27;1.90;;;;;;;7.94;100.00;101412.69;5048067;28;20057;-52
2022/09/25 05:18:33;;;;;;;8.10;1.88;;;;;;;7.95;100.00;101406.53;5049858;28;20076;-52
2022/09/25 05:21:04;;;;;;;4.90;1.90;;;;;;;7.97;100.00;101409.06;5050769;28;20076;-52
2022/09/25 05:23:32;;;;;;;6.45;1.80;;;;;;;7.91;100.00;101408.44;5049417;28;20052;-51
2022/09/25 05:26:01;;;;;;;5.13;1.75;;;;;;;7.91;100.00;101413.66;5050667;28;20060;-50
2022/09/25 05:28:30;;;;;;;5.18;2.05;;;;;;;7.81;100.00;101404.50;5050505;28;20049;-53
2022/09/25 05:31:02;;;;;;;6.63;1.70;;;;;;;7.85;100.00;101403.44;5049231;28;20444;-48
2022/09/25 05:33:34;;;;;;;4.40;2.00;;;;;;;7.90;100.00;101408.50;5049632;28;20547;-52
2022/09/25 05:36:03;;;;;;;3.88;1.52;;;;;;;7.87;100.00;101411.25;5050929;28;20053;-53
2022/09/25 05:38:32;;;;;;;7.50;1.75;;;;;;;7.84;100.00;101412.25;5050444;28;20144;-50
2022/09/25 05:41:03;;;;;;;6.65;1.95;;;;;;;7.90;100.00;101413.72;5050405;28;20115;-51
2022/09/25 05:43:32;;;;;;;8.52;2.00;;;;;;;7.94;100.00;101408.28;5050263;28;20068;-50
2022/09/25 05:46:01;;;;;;;6.38;1.80;;;;;;;7.85;100.00;101416.53;5048869;28;20051;-52
2022/09/25 05:48:29;;;;;;;4.20;1.50;;;;;;;7.83;100.00;101410.53;5049150;28;20053;-53
2022/09/25 05:50:59;;;;;;;7.45;2.17;;;;;;;7.87;100.00;101412.09;5050647;28;20127;-54
2022/09/25 05:53:29;;;;;;;7.10;1.92;;;;;;;7.88;100.00;101426.03;5048865;28;20044;-51
2022/09/25 05:55:59;;;;;;;8.00;1.98;;;;;;;7.87;100.00;101417.34;5049940;28;20044;-51
2022/09/25 05:58:29;;;;;;;7.13;1.95;;;;;;;7.86;100.00;101412.19;5049980;28;20045;-50
2022/09/25 06:01:00;;;;;;;;;;;;;;;7.90;100.00;101409.34;5049285;28;20072;-47
2022/09/25 06:03:28;;;;;;;5.55;1.90;;;;;;;7.90;100.00;101418.97;5049444;28;19925;-51
2022/09/25 06:05:58;;;;;;;6.28;2.28;;;;;;;7.90;100.00;101416.34;5050458;28;20041;-51
2022/09/25 06:08:29;;;;;;;6.47;2.00;;;;;;;7.93;100.00;101413.59;5050136;28;20041;-50
2022/09/25 06:10:59;;;;;;;7.13;2.13;;;;;;;7.94;100.00;101410.91;5049632;28;20056;-49
2022/09/25 06:13:28;;;;;;;5.95;2.42;;;;;;;8.00;100.00;101415.00;5050123;28;20439;-50
2022/09/25 06:15:56;;;;;;;5.95;2.22;;;;;;;8.02;100.00;101417.59;5048583;28;20045;-52
2022/09/25 06:18:25;;;;;;;8.07;2.45;;;;;;;7.99;100.00;101417.69;5049137;28;20041;-50
2022/09/25 06:21:01;;;;;;;8.75;2.70;;;;;;;8.01;100.00;101413.25;5050061;28;20045;-51
2022/09/25 06:23:30;;;;;;;7.63;2.60;;;;;;;8.08;100.00;101423.38;5050078;28;20053;-49
2022/09/25 06:26:02;;;;;;;6.82;2.30;;;;;;;8.14;100.00;101424.88;5049522;28;20045;-49
2022/09/25 06:28:31;;;;;;;6.22;2.53;;;;;;;8.19;100.00;101420.25;5049908;28;20535;-49
2022/09/25 06:31:00;;;;;;;9.13;2.45;;;;;;;8.25;100.00;101427.84;5047184;28;20064;-50
2022/09/25 06:33:29;;;;;;;7.57;2.42;;;;;;;8.31;100.00;101425.88;5049142;28;20049;-52
2022/09/25 06:35:59;;;;;;;6.90;2.55;;;;;;;8.29;100.00;101429.41;5049522;28;20040;-53
2022/09/25 06:38:33;;;;;;;6.10;2.33;;;;;;;8.33;100.00;101430.13;5049484;28;20045;-53
2022/09/25 06:41:01;;;;;;;6.85;2.38;;;;;;;8.38;100.00;101425.50;5048138;28;20049;-53
2022/09/25 06:43:30;;;;;;;7.40;2.63;;;;;;;8.45;100.00;101426.09;5049662;28;20397;-52
2022/09/25 06:46:02;;;;;;;7.43;2.83;;;;;;;8.48;100.00;101423.34;5048294;28;20072;-55
2022/09/25 06:48:31;;;;;;;8.27;2.30;;;;;;;8.54;100.00;101422.22;5051172;28;20049;-53
2022/09/25 06:51:00;;;;;;;5.75;2.65;;;;;;;8.61;100.00;101420.97;5049733;28;20420;-51
2022/09/25 06:53:28;;;;;;;6.38;2.78;;;;;;;8.71;100.00;101416.16;5049888;28;20033;-54
2022/09/25 06:55:59;;;;;;;7.05;2.50;;;;;;;8.82;100.00;101421.75;5049399;28;20582;-51
2022/09/25 06:58:29;;;;;;;7.10;2.85;;;;;;;8.91;100.00;101429.13;5049628;28;20045;-53
2022/09/25 07:00:57;;;;;;;7.20;2.80;;;;;;;9.05;100.00;101431.13;5051092;28;20609;-54
2022/09/25 07:03:43;;;;;;;6.75;3.20;;;;;;;9.19;100.00;101429.56;5052358;28;20567;-53
2022/09/25 07:06:13;;;;;;;8.45;3.08;;;;;;;9.33;100.00;101436.75;5051656;28;20746;-51
2022/09/25 07:08:42;;;;;;;8.15;2.90;;;;;;;9.47;100.00;101439.50;5053035;28;20816;-50
2022/09/25 07:11:14;;;;;;;10.85;2.80;;;;;;;9.69;100.00;101435.78;5052659;28;20045;-51
2022/09/25 07:13:43;;;;;;;9.05;2.47;;;;;;;9.90;100.00;101437.28;5053361;28;20056;-51
2022/09/25 07:16:13;;;;;;;9.07;2.70;;;;;;;10.11;100.00;101434.44;5051280;28;20045;-52
2022/09/25 07:18:42;;;;;;;3.97;2.00;;;;;;;10.27;100.00;101440.56;5052845;28;20045;-51
2022/09/25 07:21:15;;;;;;;6.85;2.10;;;;;;;10.39;100.00;101440.84;5052689;28;20044;-53
2022/09/25 07:23:44;;;;;;;6.70;2.40;;;;;;;10.54;100.00;101447.91;5053084;28;20124;-52
2022/09/25 07:26:15;;;;;;;5.70;2.15;;;;;;;10.65;100.00;101450.78;5052162;28;20505;-53
2022/09/25 07:28:44;;;;;;;5.82;2.08;;;;;;;10.93;100.00;101459.75;5052971;28;20041;-55
2022/09/25 07:31:17;;;;;;;5.55;2.42;;;;;;;11.21;100.00;101450.28;5050174;28;20554;-54
2022/09/25 07:33:46;;;;;;;5.78;2.28;;;;;;;11.71;100.00;101448.22;5052939;28;20057;-54
2022/09/25 07:36:16;;;;;;;6.65;2.28;;;;;;;11.63;100.00;101463.63;5052457;28;20068;-54
2022/09/25 07:38:48;;;;;;;5.20;1.98;;;;;;;11.60;100.00;101456.78;5052699;28;20135;-55
2022/09/25 07:41:21;;;;;;;5.35;2.05;;;;;;;11.81;100.00;101448.50;5051916;28;20482;-55
2022/09/25 07:43:52;;;;;;;5.05;1.95;;;;;;;11.95;100.00;101451.16;5052867;28;20049;-55
2022/09/25 07:46:41;;;;;;;7.75;2.20;;;;;;;12.27;100.00;101443.06;5050773;28;20783;-55
2022/09/25 07:49:10;;;;;;;4.72;1.80;;;;;;;12.34;100.00;101443.53;5051942;28;20499;-56
2022/09/25 07:51:38;;;;;;;8.43;1.70;;;;;;;12.73;100.00;101452.47;5052739;28;20056;-57
2022/09/25 07:54:06;;;;;;;7.45;2.22;;;;;;;12.99;100.00;101442.00;5052144;28;20092;-56
2022/09/25 07:56:37;;;;;;;7.97;1.77;;;;;;;13.16;100.00;101443.53;5051793;28;20072;-56
2022/09/25 07:59:05;;;;;;;4.90;1.65;;;;;;;13.08;100.00;101451.13;5051844;28;20049;-55
2022/09/25 08:01:33;;;;;;;5.60;1.63;;;;;;;13.32;100.00;101445.97;5049977;28;20090;-56
2022/09/25 08:04:09;;;;;;;4.80;1.75;;;;;;;13.26;100.00;101449.06;5051682;28;20407;-55
2022/09/25 08:06:38;;;;;;;5.05;1.35;;;;;;;13.61;100.00;101448.50;5052212;28;20045;-55
2022/09/25 08:09:06;;;;;;;3.65;1.30;;;;;;;13.87;100.00;101444.06;5051942;28;20056;-56
2022/09/25 08:11:39;;;;;;;5.72;1.40;;;;;;;13.81;100.00;101445.31;5051016;28;20084;-56
2022/09/25 08:14:07;;;;;;;3.72;1.45;;;;;;;13.84;100.00;101453.03;5051772;28;20084;-56
2022/09/25 08:16:35;;;;;;;7.10;1.30;;;;;;;13.97;100.00;101446.91;5049932;28;20061;-56
2022/09/25 08:19:04;;;;;;;6.00;1.00;;;;;;;14.08;100.00;101451.44;5051779;28;20044;-56
2022/09/25 08:21:32;;;;;;;3.90;1.15;;;;;;;14.32;100.00;101449.69;5051860;28;20476;-56
2022/09/25 08:24:01;;;;;;;4.80;1.27;;;;;;;14.44;100.00;101455.03;5052132;28;20044;-57
2022/09/25 08:26:30;;;;;;;4.88;1.05;;;;;;;14.55;100.00;101455.13;5051126;28;20045;-57
2022/09/25 08:29:00;;;;;;;6.18;1.17;;;;;;;14.50;100.00;101449.31;5050758;28;20052;-57
2022/09/25 08:31:28;;;;;;;5.93;1.10;;;;;;;14.50;100.00;101444.88;5049314;28;20471;-57
2022/09/25 08:33:56;;;;;;;4.80;1.00;;;;;;;14.81;100.00;101447.13;5052032;28;20395;-57
2022/09/25 08:36:44;;;;;;;4.80;1.00;;;;;;;14.87;100.00;101438.72;5051477;28;20056;-58
2022/09/25 08:39:13;;;;;;;3.85;1.00;;;;;;;15.17;100.00;101442.69;5051463;28;20041;-57
2022/09/25 08:41:47;;;;;;;2.47;1.10;;;;;;;15.53;100.00;101443.53;5050946;28;20053;-58
2022/09/25 08:44:26;;;;;;;6.35;1.33;;;;;;;15.61;100.00;101438.47;5051422;28;20491;-62
2022/09/25 08:49:52;;;;;;;6.07;0.80;;;;;;;15.75;100.00;101432.09;5051133;28;20052;-55
2022/09/25 08:52:21;;;;;;;3.08;0.95;;;;;;;15.90;100.00;101435.41;5049456;28;20057;-54
2022/09/25 08:54:51;;;;;;;5.88;1.25;;;;;;;16.01;100.00;101429.25;5051503;28;20484;-56
2022/09/25 08:57:29;;;;;;;4.82;1.00;;;;;;;16.14;100.00;101434.41;5050485;28;20542;-56
2022/09/25 09:00:03;;;;;;;4.25;1.02;;;;;;;16.29;100.00;101446.47;5051358;28;20486;-56
2022/09/25 09:02:38;;;;;;;4.78;0.90;;;;;;;16.34;100.00;101436.31;5049256;28;20419;-59
2022/09/25 09:05:17;;;;;;;6.10;1.00;;;;;;;16.41;100.00;101435.81;5050414;28;20568;-59
2022/09/25 09:07:51;;;;;;;5.57;1.00;;;;;;;16.58;96.91;101434.44;5051001;28;20057;-59
2022/09/25 09:10:28;;;;;;;3.67;0.88;;;;;;;16.59;96.50;101436.16;5050768;28;20049;-58
2022/09/25 09:13:00;;;;;;;3.33;0.80;;;;;;;16.87;99.19;101440.03;5049898;28;20053;-59
2022/09/25 09:15:38;;;;;;;3.33;0.70;;;;;;;16.83;92.26;101436.78;5050276;28;20048;-56
2022/09/25 09:18:18;;;;;;;3.45;0.70;;;;;;;16.94;93.97;101443.06;5048241;28;20567;-55
2022/09/25 09:20:52;;;;;;;6.10;0.90;;;;;;;17.02;93.59;101433.47;5050008;28;20061;-56
2022/09/25 09:23:22;;;;;;;5.00;1.08;;;;;;;17.20;93.96;101435.56;5049391;28;20135;-56
2022/09/25 09:26:00;;;;;;;4.65;0.90;;;;;;;17.27;94.46;101438.56;5050596;28;20049;-57
2022/09/25 09:29:02;;;;;;;3.38;0.80;;;;;;;17.65;92.15;101432.63;5050195;28;20056;-55
2022/09/25 09:31:44;;;;;;;3.40;0.90;;;;;;;17.71;93.58;101434.78;5040664;28;20517;-56
2022/09/25 09:34:43;;;;;;;3.28;0.85;;;;;;;17.20;86.87;101430.25;5050305;28;20552;-56
2022/09/25 09:37:41;;;;;;;4.63;0.77;;;;;;;17.50;87.85;101421.50;5050404;28;20102;-56
2022/09/25 09:40:23;;;;;;;3.88;0.90;;;;;;;17.57;86.87;101427.13;5050095;28;20041;-56
2022/09/25 09:43:02;;;;;;;4.22;1.00;;;;;;;17.86;87.43;101421.09;5049448;28;20526;-56
2022/09/25 09:45:39;;;;;;;3.35;0.77;;;;;;;18.02;85.23;101421.47;5050197;28;20129;-56
2022/09/25 09:48:15;;;;;;;3.67;0.90;;;;;;;18.32;84.73;101411.75;5048125;28;20049;-56
2022/09/25 09:50:47;;;;;;;6.32;1.10;;;;;;;18.47;84.62;101416.69;5049989;28;20044;-58
2022/09/25 09:53:30;;;;;;;5.60;0.95;;;;;;;18.39;80.97;101412.91;5049849;28;20124;-58
2022/09/25 09:56:04;;;;;;;3.65;0.90;;;;;;;18.40;77.59;101406.59;5050065;28;20346;-58
2022/09/25 09:58:43;;;;;;;4.30;0.80;;;;;;;18.25;78.11;101410.63;5050313;28;20049;-59
2022/09/25 10:01:13;;;;;;;3.80;0.75;;;;;;;18.41;75.69;101415.44;5048526;28;20123;-58
2022/09/25 10:04:06;;;;;;;4.30;1.20;;;;;;;18.57;75.46;101415.72;5050177;28;20099;-59
2022/09/25 10:06:38;;;;;;;4.35;0.80;;;;;;;18.31;73.63;101402.09;5050651;28;20037;-59
2022/09/25 10:09:07;;;;;;;4.40;0.88;;;;;;;18.49;76.95;101409.44;5050209;28;20056;-59
2022/09/25 10:11:36;;;;;;;5.28;0.88;;;;;;;18.39;74.42;101409.38;5049709;28;20055;-60
2022/09/25 10:14:04;;;;;;;4.65;0.93;;;;;;;18.72;70.90;101408.16;5049927;28;20511;-58
2022/09/25 10:16:33;;;;;;;5.53;0.90;;;;;;;18.73;71.12;101404.53;5048074;28;20504;-59
2022/09/25 10:19:06;;;;;;;4.45;0.88;;;;;;;18.97;71.29;101395.28;5049681;28;20045;-58
2022/09/25 10:21:40;;;;;;;3.35;0.88;;;;;;;19.08;69.65;101402.28;5049850;28;20360;-60
2022/09/25 10:24:08;;;;;;;2.25;0.65;;;;;;;19.20;65.90;101401.16;5049679;28;20040;-59
2022/09/25 10:26:38;;;;;;;6.00;0.85;;;;;;;19.63;70.02;101401.59;5049906;28;20068;-60
2022/09/25 10:29:25;;;;;;;3.08;0.60;;;;;;;19.50;66.80;101403.75;5049505;28;20393;-60
2022/09/25 10:31:59;;;;;;;4.20;0.82;;;;;;;19.46;66.41;101405.88;5047915;28;20060;-61
2022/09/25 10:34:31;;;;;;;5.57;0.80;;;;;;;19.25;64.21;101396.25;5050751;28;20064;-60
2022/09/25 10:37:19;;;;;;;4.72;0.90;;;;;;;19.15;64.97;101392.72;5054198;28;20103;-60
2022/09/25 10:40:01;;;;;;;2.78;0.70;;;;;;;20.02;67.51;101390.78;5052319;28;20057;-60
2022/09/25 10:42:39;;;;;;;5.30;0.95;;;;;;;20.18;63.60;101374.13;5052929;28;20049;-61
2022/09/25 10:45:29;;;;;;;2.85;0.60;;;;;;;20.16;63.18;101384.09;5053458;28;20071;-57
2022/09/25 10:50:45;;;;;;;4.32;0.90;;;;;;;20.44;62.48;101384.91;5053396;28;20041;-60
2022/09/25 10:53:34;;;;;;;1.30;0.50;;;;;;;20.30;59.72;101380.09;5053446;28;20449;-61
2022/09/25 10:56:05;;;;;;;3.60;0.90;;;;;;;20.59;61.77;101382.53;5047646;28;20061;-60
2022/09/25 10:58:39;;;;;;;5.10;0.70;;;;;;;21.13;55.35;101372.81;5053159;28;20059;-61
2022/09/25 11:01:12;;;;;;;3.70;0.80;;;;;;;21.25;57.62;101376.91;5051394;28;20041;-60
2022/09/25 11:03:49;;;;;;;2.00;0.47;;;;;;;20.91;57.30;101375.84;5052989;28;20082;-60
2022/09/25 11:06:22;;;;;;;2.70;0.55;;;;;;;20.66;59.80;101373.94;5053047;28;20049;-60
2022/09/25 11:09:06;;;;;;;4.70;0.88;;;;;;;21.11;57.53;101370.28;5053368;28;20045;-60
2022/09/25 11:11:37;;;;;;;5.03;0.98;;;;;;;21.60;56.18;101359.06;5052603;28;20040;-61
2022/09/25 11:14:08;;;;;;;3.33;0.70;;;;;;;21.67;54.06;101372.66;5052764;28;20068;-62
2022/09/25 11:16:48;;;;;;;6.30;1.10;;;;;;;22.03;52.05;101375.97;5050667;28;20541;-61
2022/09/25 11:19:22;;;;;;;4.60;0.70;;;;;;;22.16;50.10;101366.63;5052839;28;20052;-61
2022/09/25 11:21:58;;;;;;;3.08;0.52;;;;;;;22.28;48.32;101366.16;5051783;28;20049;-62
2022/09/25 11:24:39;;;;;;;3.25;0.60;;;;;;;22.33;48.20;101360.28;5053068;28;20056;-62
2022/09/25 11:27:14;;;;;;;4.50;0.90;;;;;;;22.52;48.67;101369.88;5052259;28;20381;-61
2022/09/25 11:29:53;;;;;;;3.78;0.80;;;;;;;23.03;49.13;101356.31;5052701;28;20123;-62
2022/09/25 11:32:28;;;;;;;3.80;0.73;;;;;;;22.94;48.81;101351.97;5050678;28;20083;-61
2022/09/25 11:35:15;;;;;;;3.53;0.63;;;;;;;23.48;49.69;101356.75;5052991;28;20500;-61
2022/09/25 11:37:55;;;;;;;5.32;0.82;;;;;;;23.23;46.09;101350.59;5053036;28;20399;-61
2022/09/25 11:43:35;;;;;;;3.47;0.70;;;;;;;22.72;45.19;101342.78;5051884;28;20115;-62
2022/09/25 11:46:18;;;;;;;3.45;0.60;;;;;;;21.85;45.54;101343.13;5050019;28;20130;-61
2022/09/25 11:48:55;;;;;;;3.72;0.98;;;;;;;22.70;45.19;101337.59;5051163;28;20052;-61
2022/09/25 11:51:38;;;;;;;2.72;0.82;;;;;;;23.07;43.81;101333.53;5052684;28;20485;-62
2022/09/25 11:54:20;;;;;;;2.15;0.50;;;;;;;23.01;42.65;101320.78;5052365;28;20499;-59
2022/09/25 11:57:10;;;;;;;3.40;0.70;;;;;;;22.38;45.32;101325.84;5051659;28;20052;-58
2022/09/25 12:00:05;;;;;;;2.50;0.60;;;;;;;21.70;46.21;101318.81;5052533;28;20115;-58
2022/09/25 12:02:59;;;;;;;3.88;0.77;;;;;;;21.72;45.91;101308.75;5050687;28;20083;-62
2022/09/25 12:05:46;;;;;;;4.00;0.80;;;;;;;21.39;47.57;101314.81;5051066;28;20061;-62
2022/09/25 12:08:27;;;;;;;4.57;0.80;;;;;;;21.02;48.16;101321.25;5052348;28;20103;-61